Helena, Mississippi
Current Conditions -  °F | °C
As of 5:53 AM on Wednesday 26 Nov 2014 (Local Time) from KPQL Reporting Station
Clear Clear  
Wind Chill: 31°   Ceiling: Unl
Heat Index: 31°   Visibility: 10mi
Dew Point: 28°   Wind: 0mph
Humidity: 89%   Direction: NA
Pressure: 30.23"   Gusts: NA
Location:  30.3649°N, 88.5432°W
Report Text: KPQL 261153Z AUTO 00000KT 10SM CLR M01/M02 A3023 RMK AO2 SLP236 T10061022 10089 21011 53013 TSNO
Loading
Personal Weather Stations






























Interactive Weather Map New forecast layout! Learn more

10-Day Weather Forecast

Advertisements
Track Severe Weather on mobile